Time;durP1;ratioP1;P1;durP2;ratioP2;P2;SDS_P1;SDS_P2;PMS_P1;PMS_P2;Temp;Humidity;BMP_temperature;BMP_pressure;BME280_temperature;BME280_humidity;BME280_pressure;Samples;Min_cycle;Max_cycle;Signal;HPM_P1;HPM_P2
2021/08/28 00:00:37;;;;;;;18.02;12.32;;;;;;;19.63;71.90;96120.50;6186059;23;20033;-65
2021/08/28 00:03:03;;;;;;;16.00;13.07;;;;;;;19.65;71.34;96129.19;6159643;23;20032;-66
2021/08/28 00:05:29;;;;;;;20.02;14.23;;;;;;;19.54;71.72;96121.28;6185887;23;20024;-65
2021/08/28 00:07:55;;;;;;;20.77;14.27;;;;;;;19.55;72.26;96121.16;6186016;23;20411;-65
2021/08/28 00:10:22;;;;;;;27.30;15.73;;;;;;;19.51;71.67;96119.69;6185943;23;20005;-66
2021/08/28 00:12:48;;;;;;;17.95;14.30;;;;;;;19.48;72.09;96121.78;6186026;23;20005;-65
2021/08/28 00:15:13;;;;;;;18.95;12.88;;;;;;;19.46;71.99;96129.84;6185930;23;20005;-65
2021/08/28 00:17:40;;;;;;;19.30;14.55;;;;;;;19.43;72.39;96120.34;6185953;23;19997;-65
2021/08/28 00:20:09;;;;;;;21.05;13.80;;;;;;;19.42;72.23;96131.09;6185858;23;20005;-65
2021/08/28 00:22:34;;;;;;;19.05;13.95;;;;;;;19.43;72.60;96130.97;6186160;23;20331;-66
2021/08/28 00:25:00;;;;;;;16.05;12.90;;;;;;;19.39;71.84;96124.19;6185968;23;20001;-65
2021/08/28 00:27:25;;;;;;;16.58;13.82;;;;;;;19.39;71.75;96133.97;6159983;23;20008;-65
2021/08/28 00:29:51;;;;;;;24.83;16.67;;;;;;;19.32;72.39;96130.97;6185697;23;20013;-66
2021/08/28 00:32:16;;;;;;;21.30;15.73;;;;;;;19.33;72.64;96130.00;6185882;23;20001;-65
2021/08/28 00:34:42;;;;;;;20.90;15.18;;;;;;;19.29;72.35;96125.91;6186307;23;20008;-66
2021/08/28 00:37:08;;;;;;;23.27;17.02;;;;;;;19.15;73.25;96130.50;6185668;23;20069;-65
2021/08/28 00:39:34;;;;;;;21.25;17.05;;;;;;;19.21;73.78;96123.88;6185781;23;19997;-65
2021/08/28 00:41:59;;;;;;;21.80;16.00;;;;;;;19.23;73.02;96124.59;6185811;23;20004;-65
2021/08/28 00:44:26;;;;;;;20.15;14.45;;;;;;;19.19;72.55;96125.81;6185581;23;20025;-66
2021/08/28 00:46:56;;;;;;;25.40;16.65;;;;;;;19.17;72.87;96122.41;6185875;23;20003;-65
2021/08/28 00:49:23;;;;;;;20.63;15.50;;;;;;;19.17;73.10;96133.88;6185775;23;20012;-65
2021/08/28 00:51:49;;;;;;;19.67;15.98;;;;;;;19.17;73.78;96133.88;6185650;23;20084;-65
2021/08/28 00:54:14;;;;;;;24.52;17.77;;;;;;;19.12;73.56;96129.91;6185774;23;20419;-64
2021/08/28 00:56:40;;;;;;;27.48;17.95;;;;;;;19.10;74.36;96130.03;6185723;23;20005;-65
2021/08/28 00:59:06;;;;;;;28.23;17.30;;;;;;;19.06;73.95;96132.03;6185619;23;20005;-65
2021/08/28 01:01:37;;;;;;;20.63;15.63;;;;;;;19.08;73.87;96133.78;6185849;23;20007;-65
2021/08/28 01:04:04;;;;;;;21.38;16.35;;;;;;;19.11;72.96;96137.00;6185899;23;20009;-65
2021/08/28 01:06:51;;;;;;;20.90;17.48;;;;;;;19.10;73.80;96137.13;6185427;23;20347;-66
2021/08/28 01:09:25;;;;;;;24.75;19.42;;;;;;;19.09;74.26;96138.09;6185673;23;20012;-64
2021/08/28 01:12:01;;;;;;;23.15;18.13;;;;;;;19.09;75.06;96141.59;6185529;23;20132;-65
2021/08/28 01:14:28;;;;;;;33.88;20.05;;;;;;;19.06;75.06;96139.16;6185699;23;20001;-66
2021/08/28 01:16:59;;;;;;;24.52;17.50;;;;;;;19.06;74.07;96136.50;6185445;23;20004;-66
2021/08/28 01:19:36;;;;;;;33.97;24.33;;;;;;;19.04;76.73;96146.38;6185739;23;20412;-66
2021/08/28 01:22:05;;;;;;;30.80;23.42;;;;;;;19.14;78.57;96142.06;6185665;23;20009;-66
2021/08/28 01:24:31;;;;;;;32.95;24.48;;;;;;;19.21;79.28;96139.78;6185446;23;20005;-65
2021/08/28 01:27:13;;;;;;;32.55;22.48;;;;;;;19.22;79.65;96140.63;6185672;23;20058;-66
2021/08/28 01:29:40;;;;;;;35.83;23.08;;;;;;;19.25;79.76;96129.75;6185689;23;20005;-65
2021/08/28 01:32:07;;;;;;;32.50;21.45;;;;;;;19.26;80.44;96136.78;6185297;23;20001;-65
2021/08/28 01:34:33;;;;;;;29.23;21.20;;;;;;;19.31;80.01;96134.59;6185398;23;20113;-65
2021/08/28 01:37:01;;;;;;;35.67;21.30;;;;;;;19.34;80.11;96138.78;6185281;23;20005;-64
2021/08/28 01:39:27;;;;;;;31.48;21.23;;;;;;;19.36;79.84;96136.88;6185353;23;20001;-65
2021/08/28 01:42:01;;;;;;;27.05;21.38;;;;;;;19.34;79.72;96130.84;6185290;23;20040;-65
2021/08/28 01:44:27;;;;;;;30.65;21.52;;;;;;;19.34;79.98;96129.03;6185315;23;20080;-65
2021/08/28 01:46:53;;;;;;;33.40;23.10;;;;;;;19.37;79.85;96135.91;6185323;23;20001;-65
2021/08/28 01:49:21;;;;;;;26.08;20.85;;;;;;;19.33;79.88;96127.38;6185311;23;19998;-65
2021/08/28 01:51:49;;;;;;;26.63;19.67;;;;;;;19.38;79.31;96125.16;6185213;23;20032;-66
2021/08/28 01:54:15;;;;;;;23.15;17.48;;;;;;;19.42;78.43;96126.59;6185359;23;20008;-65
2021/08/28 01:56:40;;;;;;;25.77;17.92;;;;;;;19.42;77.45;96126.59;6185600;23;20001;-66
2021/08/28 01:59:07;;;;;;;24.15;16.55;;;;;;;19.41;76.67;96132.03;6187319;23;20423;-66
2021/08/28 02:01:32;;;;;;;27.48;15.82;;;;;;;19.45;76.15;96125.53;6187371;23;20470;-65
2021/08/28 02:03:58;;;;;;;21.08;16.42;;;;;;;19.45;75.18;96136.97;6187118;23;20009;-65
2021/08/28 02:06:32;;;;;;;21.25;13.88;;;;;;;19.39;74.90;96131.31;6186806;23;20017;-65
2021/08/28 02:09:01;;;;;;;21.90;15.38;;;;;;;19.38;74.74;96121.69;6187354;23;20040;-65
2021/08/28 02:11:43;;;;;;;20.45;13.55;;;;;;;19.40;73.83;96127.69;6186949;23;20454;-65
2021/08/28 02:14:17;;;;;;;21.02;14.57;;;;;;;19.33;73.78;96130.00;6187078;23;20005;-66
2021/08/28 02:16:45;;;;;;;17.05;14.05;;;;;;;19.38;73.11;96137.59;6186962;23;20015;-66
2021/08/28 02:19:17;;;;;;;16.30;12.65;;;;;;;19.34;72.49;96137.00;6186856;23;20020;-67
2021/08/28 02:21:46;;;;;;;23.05;12.98;;;;;;;19.31;71.96;96135.44;6187023;23;20019;-65
2021/08/28 02:24:18;;;;;;;20.58;13.35;;;;;;;19.32;72.21;96134.47;6186927;23;20084;-66
2021/08/28 02:26:53;;;;;;;18.15;13.23;;;;;;;19.26;72.33;96136.78;6187161;23;20015;-64
2021/08/28 02:29:29;;;;;;;19.70;13.10;;;;;;;19.22;71.54;96137.97;6186879;23;20001;-65
2021/08/28 02:31:58;;;;;;;17.95;13.48;;;;;;;19.25;71.27;96135.06;6186773;23;20005;-65
2021/08/28 02:34:27;;;;;;;19.95;13.23;;;;;;;19.24;70.84;96138.69;6186962;23;20001;-65
2021/08/28 02:36:53;;;;;;;19.90;14.70;;;;;;;19.30;69.96;96146.16;6187223;23;20013;-65
2021/08/28 02:39:19;;;;;;;25.13;13.65;;;;;;;19.24;70.53;96146.66;6186743;23;20313;-65
2021/08/28 02:41:48;;;;;;;20.13;13.57;;;;;;;19.26;69.86;96139.44;6186820;23;20033;-65
2021/08/28 02:44:15;;;;;;;20.67;14.35;;;;;;;19.22;70.33;96144.13;6186590;23;20036;-64
2021/08/28 02:46:42;;;;;;;18.55;13.43;;;;;;;19.19;69.86;96147.00;6186662;23;20416;-65
2021/08/28 02:49:10;;;;;;;24.20;14.55;;;;;;;19.19;69.56;96147.00;6186620;23;20056;-64
2021/08/28 02:51:36;;;;;;;23.05;14.55;;;;;;;19.18;69.38;96143.50;6186435;23;20092;-65
2021/08/28 02:54:03;;;;;;;27.52;14.77;;;;;;;19.19;69.05;96147.00;6186930;23;20377;-65
2021/08/28 02:56:31;;;;;;;23.00;15.25;;;;;;;19.19;68.51;96150.50;6186686;23;20412;-65
2021/08/28 02:58:57;;;;;;;29.05;14.77;;;;;;;19.14;69.18;96144.72;6186570;23;20111;-66
2021/08/28 03:01:25;;;;;;;22.25;15.82;;;;;;;19.13;68.90;96158.94;6186475;23;20443;-65
2021/08/28 03:03:52;;;;;;;24.02;15.65;;;;;;;19.06;68.94;96163.84;6186471;23;20009;-65
2021/08/28 03:06:18;;;;;;;22.83;16.23;;;;;;;19.04;68.64;96163.13;6186045;23;20447;-66
2021/08/28 03:08:45;;;;;;;26.38;16.55;;;;;;;18.99;68.43;96156.53;6186332;23;20371;-65
2021/08/28 03:11:13;;;;;;;22.73;15.70;;;;;;;19.00;68.06;96161.69;6186292;23;20012;-66
2021/08/28 03:13:39;;;;;;;22.15;16.08;;;;;;;19.00;68.31;96160.84;6186588;23;20076;-66
2021/08/28 03:16:05;;;;;;;25.50;17.23;;;;;;;18.97;68.05;96161.94;6186406;23;20001;-65
2021/08/28 03:18:35;;;;;;;24.02;16.80;;;;;;;18.92;67.96;96159.66;6186351;23;20059;-65
2021/08/28 03:21:02;;;;;;;27.35;17.52;;;;;;;18.88;67.78;96165.28;6186805;23;20001;-65
2021/08/28 03:23:30;;;;;;;22.75;16.77;;;;;;;18.90;67.36;96176.63;6186186;23;20005;-65
2021/08/28 03:25:57;;;;;;;28.33;16.48;;;;;;;18.86;67.42;96168.06;6186222;23;20001;-65
2021/08/28 03:28:24;;;;;;;27.45;17.08;;;;;;;18.76;67.64;96162.66;6186298;23;20032;-66
2021/08/28 03:30:51;;;;;;;26.75;16.73;;;;;;;18.76;67.57;96167.09;6186133;23;20008;-65
2021/08/28 03:33:17;;;;;;;23.85;16.85;;;;;;;18.58;67.74;96142.88;6186150;23;20001;-65
2021/08/28 03:35:46;;;;;;;28.75;18.05;;;;;;;18.74;67.34;96166.34;6186445;23;20009;-65
2021/08/28 03:38:12;;;;;;;26.73;18.55;;;;;;;18.73;67.63;96168.19;6186460;23;20047;-66
2021/08/28 03:40:39;;;;;;;22.13;17.00;;;;;;;18.73;66.94;96169.97;6186386;23;20005;-66
2021/08/28 03:43:05;;;;;;;26.50;17.58;;;;;;;18.70;66.90;96168.41;6186441;23;20005;-65
2021/08/28 03:45:31;;;;;;;28.35;17.67;;;;;;;18.66;66.99;96172.28;6185965;23;20080;-66
2021/08/28 03:47:57;;;;;;;28.23;17.70;;;;;;;18.66;66.99;96174.91;6185981;23;20051;-65
2021/08/28 03:50:23;;;;;;;25.00;17.08;;;;;;;18.64;66.86;96182.13;6186259;23;20304;-65
2021/08/28 03:52:49;;;;;;;24.02;16.73;;;;;;;18.54;66.65;96185.47;6186177;23;20383;-65
2021/08/28 03:55:15;;;;;;;25.98;16.92;;;;;;;18.60;66.39;96181.50;6185942;23;19997;-65
2021/08/28 03:57:40;;;;;;;27.88;16.58;;;;;;;18.62;66.33;96186.69;6159587;23;20009;-64
2021/08/28 04:00:07;;;;;;;31.70;17.40;;;;;;;18.60;66.27;96184.16;6185932;23;20012;-65
2021/08/28 04:02:33;;;;;;;26.35;17.02;;;;;;;18.63;66.31;96194.50;6185997;23;20336;-65
2021/08/28 04:05:00;;;;;;;24.75;16.77;;;;;;;18.66;66.09;96191.63;6185942;23;20009;-66
2021/08/28 04:07:25;;;;;;;24.42;16.17;;;;;;;18.64;66.12;96190.06;6185600;23;20443;-65
2021/08/28 04:09:51;;;;;;;26.77;16.48;;;;;;;18.71;65.74;96193.94;6185717;23;20036;-65
2021/08/28 04:12:16;;;;;;;27.88;17.42;;;;;;;18.73;65.56;96194.66;6186194;23;20079;-65
2021/08/28 04:14:42;;;;;;;28.17;17.38;;;;;;;18.82;65.16;96199.25;6185865;23;20491;-65
2021/08/28 04:17:08;;;;;;;21.30;14.98;;;;;;;18.92;64.85;96204.69;6185824;23;20151;-65
2021/08/28 04:19:34;;;;;;;24.50;16.23;;;;;;;19.10;64.85;96201.59;6186167;23;20427;-65
2021/08/28 04:22:00;;;;;;;20.05;15.48;;;;;;;19.24;63.73;96204.97;6185647;23;20375;-65
2021/08/28 04:24:26;;;;;;;20.55;15.68;;;;;;;19.39;63.55;96210.88;6186027;23;20001;-65
2021/08/28 04:26:51;;;;;;;20.63;15.60;;;;;;;19.68;63.44;96202.38;6185702;23;20005;-66
2021/08/28 04:29:17;;;;;;;23.42;16.05;;;;;;;19.94;61.89;96202.94;6186042;23;20080;-66
2021/08/28 04:31:44;;;;;;;23.42;15.35;;;;;;;20.23;60.98;96212.16;6185852;23;20297;-65
2021/08/28 04:34:09;;;;;;;24.73;15.13;;;;;;;20.61;59.73;96201.09;6185745;23;20001;-66
2021/08/28 04:36:35;;;;;;;18.98;14.50;;;;;;;20.96;58.79;96210.59;6185577;23;20113;-65
2021/08/28 04:39:01;;;;;;;20.05;14.93;;;;;;;21.20;57.41;96209.44;6185506;23;20004;-65
2021/08/28 04:41:27;;;;;;;19.83;14.48;;;;;;;21.44;56.10;96206.47;6185904;23;20051;-64
2021/08/28 04:43:53;;;;;;;23.95;14.05;;;;;;;21.71;55.47;96210.31;6185716;23;20015;-65
2021/08/28 04:46:18;;;;;;;18.42;14.07;;;;;;;22.03;55.32;96211.09;6185761;23;20033;-65
2021/08/28 04:48:45;;;;;;;23.08;14.15;;;;;;;22.24;53.89;96204.81;6185752;23;20005;-64
2021/08/28 04:51:11;;;;;;;17.63;14.05;;;;;;;22.61;53.34;96211.28;6185831;23;20044;-65
2021/08/28 04:53:37;;;;;;;19.65;13.32;;;;;;;22.94;52.28;96206.44;6185923;23;20013;-66
2021/08/28 04:56:03;;;;;;;19.45;14.10;;;;;;;23.18;51.42;96207.75;6185746;23;20016;-64
2021/08/28 04:58:29;;;;;;;19.23;12.95;;;;;;;23.53;50.50;96213.41;6185863;23;20012;-66
2021/08/28 05:00:54;;;;;;;17.63;13.07;;;;;;;23.79;49.23;96215.41;6185695;23;20323;-65
2021/08/28 05:03:20;;;;;;;16.88;12.35;;;;;;;24.03;49.68;96210.47;6185837;23;20004;-65
2021/08/28 05:05:46;;;;;;;17.58;12.45;;;;;;;24.05;48.91;96214.66;6185357;23;20040;-67
2021/08/28 05:08:12;;;;;;;16.83;12.05;;;;;;;24.25;49.01;96219.03;6185580;23;20127;-66
2021/08/28 05:10:47;;;;;;;22.13;13.43;;;;;;;24.66;48.72;96210.56;6185528;23;20063;-65
2021/08/28 05:13:13;;;;;;;18.13;13.35;;;;;;;25.10;47.59;96205.19;6185563;23;20005;-65
2021/08/28 05:15:38;;;;;;;19.20;11.88;;;;;;;25.36;46.01;96212.38;6185401;23;20036;-64
2021/08/28 05:18:05;;;;;;;17.83;12.25;;;;;;;25.67;46.03;96216.38;6185855;23;20471;-67
2021/08/28 05:20:31;;;;;;;16.83;12.05;;;;;;;25.95;45.45;96208.06;6185551;23;20040;-65
2021/08/28 05:22:57;;;;;;;15.05;10.75;;;;;;;25.75;44.56;96212.88;6185835;23;20001;-65
2021/08/28 05:25:22;;;;;;;16.92;12.65;;;;;;;25.72;45.10;96210.53;6185395;23;20225;-65
2021/08/28 05:27:48;;;;;;;15.70;12.25;;;;;;;25.90;45.16;96213.09;6185474;23;20005;-67
2021/08/28 05:30:14;;;;;;;16.90;12.02;;;;;;;25.80;45.28;96207.03;6185396;23;20001;-66
2021/08/28 05:32:41;;;;;;;17.30;11.73;;;;;;;25.84;45.66;96205.72;6186082;23;20001;-66
2021/08/28 05:35:07;;;;;;;17.48;11.48;;;;;;;26.27;44.92;96205.63;6187464;23;20028;-65
2021/08/28 05:37:32;;;;;;;15.98;12.45;;;;;;;26.26;44.85;96203.97;6187426;23;20043;-66
2021/08/28 05:39:58;;;;;;;16.75;12.50;;;;;;;26.30;44.94;96199.13;6187400;23;20009;-65
2021/08/28 05:42:24;;;;;;;16.55;12.05;;;;;;;26.49;44.53;96198.81;6187373;23;20084;-66
2021/08/28 05:44:50;;;;;;;18.58;11.63;;;;;;;26.95;43.65;96202.81;6187523;23;20143;-65
2021/08/28 05:47:15;;;;;;;17.27;11.68;;;;;;;27.17;43.58;96202.25;6187242;23;20009;-65
2021/08/28 05:49:41;;;;;;;14.30;11.98;;;;;;;27.31;43.11;96204.25;6187346;23;20005;-65
2021/08/28 05:52:07;;;;;;;20.08;11.98;;;;;;;27.34;43.20;96200.38;6187478;23;20470;-65
2021/08/28 05:54:32;;;;;;;17.35;12.23;;;;;;;27.28;42.48;96203.75;6187406;23;20035;-65
2021/08/28 05:56:58;;;;;;;14.85;11.50;;;;;;;27.31;43.15;96206.09;6187484;23;20481;-65
2021/08/28 05:59:25;;;;;;;19.83;11.25;;;;;;;27.67;42.45;96202.13;6187413;23;20032;-66
2021/08/28 06:01:52;;;;;;;13.38;11.90;;;;;;;27.82;41.70;96208.44;6187250;23;20080;-66
2021/08/28 06:04:18;;;;;;;14.30;10.70;;;;;;;28.03;41.41;96206.16;6187538;23;20009;-64
2021/08/28 06:06:43;;;;;;;17.70;11.65;;;;;;;27.97;41.32;96196.94;6186878;23;20124;-64
2021/08/28 06:09:09;;;;;;;15.00;11.85;;;;;;;27.87;42.12;96202.53;6187072;23;20008;-67
2021/08/28 06:11:34;;;;;;;22.58;12.55;;;;;;;27.80;41.79;96204.25;6186983;23;20079;-65
2021/08/28 06:14:00;;;;;;;16.27;11.43;;;;;;;27.86;42.69;96199.03;6186943;23;20011;-66
2021/08/28 06:16:26;;;;;;;14.75;11.82;;;;;;;27.91;41.65;96203.88;6186938;23;20028;-66
2021/08/28 06:18:52;;;;;;;17.67;11.95;;;;;;;27.55;41.97;96198.97;6186820;23;20048;-66
2021/08/28 06:21:19;;;;;;;16.73;11.55;;;;;;;27.32;41.71;96203.25;6187018;23;20064;-64
2021/08/28 06:23:45;;;;;;;15.32;11.50;;;;;;;27.17;42.60;96205.78;6186941;23;20013;-66
2021/08/28 06:26:11;;;;;;;18.17;11.07;;;;;;;27.07;42.91;96205.16;6186974;23;20012;-64
2021/08/28 06:28:37;;;;;;;17.65;11.95;;;;;;;26.83;43.06;96183.53;6186893;23;20010;-65
2021/08/28 06:31:03;;;;;;;14.00;10.98;;;;;;;27.24;43.00;96201.41;6186843;23;20380;-65
2021/08/28 06:33:28;;;;;;;15.25;10.85;;;;;;;27.37;42.02;96190.16;6187017;23;20005;-65
2021/08/28 06:35:54;;;;;;;17.80;11.25;;;;;;;27.65;42.43;96186.19;6186787;23;20009;-65
2021/08/28 06:38:20;;;;;;;20.30;10.60;;;;;;;27.70;41.48;96188.34;6187138;23;20009;-65
2021/08/28 06:40:45;;;;;;;13.00;10.30;;;;;;;27.88;41.92;96182.72;6187209;23;20001;-65
2021/08/28 06:43:11;;;;;;;15.48;10.95;;;;;;;27.66;42.07;96185.16;6186691;23;20331;-65
2021/08/28 06:45:37;;;;;;;13.82;10.25;;;;;;;27.77;41.49;96185.78;6187317;23;20434;-66
2021/08/28 06:48:03;;;;;;;12.30;10.45;;;;;;;27.80;41.96;96182.75;6186809;23;20335;-66
2021/08/28 06:50:28;;;;;;;13.48;10.95;;;;;;;27.76;42.04;96182.28;6187092;23;20017;-65
2021/08/28 06:52:54;;;;;;;14.45;11.20;;;;;;;27.73;41.77;96178.13;6186782;23;20071;-66
2021/08/28 06:55:19;;;;;;;17.23;11.02;;;;;;;27.47;41.98;96176.50;6187056;23;20005;-66
2021/08/28 06:57:45;;;;;;;13.43;10.55;;;;;;;27.47;42.00;96183.72;6186882;23;20406;-65
2021/08/28 07:00:13;;;;;;;17.48;11.05;;;;;;;27.52;42.82;96177.81;6186790;23;20084;-65
2021/08/28 07:02:40;;;;;;;14.20;10.48;;;;;;;27.57;42.63;96180.84;6186719;23;20005;-66
2021/08/28 07:05:06;;;;;;;16.55;10.00;;;;;;;27.79;42.22;96173.03;6160320;23;20027;-64
2021/08/28 07:07:32;;;;;;;13.95;10.95;;;;;;;27.81;41.50;96169.16;6214584;23;20477;-65
2021/08/28 07:09:58;;;;;;;17.08;12.00;;;;;;;27.71;42.82;96171.22;6216645;23;20140;-66
2021/08/28 07:12:24;;;;;;;15.38;10.50;;;;;;;28.19;42.28;96172.94;6216813;23;19996;-66
2021/08/28 07:14:50;;;;;;;13.63;10.95;;;;;;;28.57;41.81;96162.28;6217027;23;20004;-65
2021/08/28 07:17:16;;;;;;;17.13;11.57;;;;;;;28.90;41.07;96155.75;6216372;23;20012;-66
2021/08/28 07:19:42;;;;;;;18.50;11.75;;;;;;;29.24;40.56;96165.16;6216634;23;20028;-66
2021/08/28 07:22:07;;;;;;;15.93;10.55;;;;;;;28.98;39.58;96152.97;6214877;23;20431;-64
2021/08/28 07:24:33;;;;;;;14.27;11.13;;;;;;;29.04;40.61;96153.28;6216500;23;20012;-65
2021/08/28 07:26:59;;;;;;;15.00;11.15;;;;;;;29.39;40.30;96165.16;6216699;23;20521;-64
2021/08/28 07:29:25;;;;;;;14.90;10.45;;;;;;;29.65;38.97;96157.63;6216866;23;20027;-65
2021/08/28 07:31:54;;;;;;;14.93;10.65;;;;;;;29.87;38.42;96160.34;6216953;23;20295;-66
2021/08/28 07:34:20;;;;;;;15.68;10.25;;;;;;;29.93;39.09;96154.19;6216662;23;20000;-65
2021/08/28 07:36:45;;;;;;;17.52;10.70;;;;;;;29.98;38.63;96148.25;6216453;23;20005;-65
2021/08/28 07:39:11;;;;;;;14.73;10.35;;;;;;;30.02;38.25;96153.06;6216648;23;20423;-67
2021/08/28 07:41:37;;;;;;;18.02;12.05;;;;;;;29.98;39.03;96149.06;6216270;23;20028;-66
2021/08/28 07:44:04;;;;;;;16.85;11.55;;;;;;;29.95;38.71;96146.75;6216694;23;20009;-65
2021/08/28 07:46:29;;;;;;;15.68;10.88;;;;;;;30.10;38.45;96143.19;6216349;23;20001;-66
2021/08/28 07:48:55;;;;;;;19.50;11.55;;;;;;;30.51;37.96;96142.53;6216315;23;20027;-66
2021/08/28 07:51:20;;;;;;;17.30;10.77;;;;;;;30.64;37.59;96144.50;6216108;23;20063;-65
2021/08/28 07:53:46;;;;;;;17.92;11.20;;;;;;;30.82;37.86;96142.38;6216615;23;20028;-64
2021/08/28 07:56:12;;;;;;;15.40;11.65;;;;;;;30.85;38.34;96133.91;6214636;23;20040;-66
2021/08/28 07:58:37;;;;;;;15.20;11.43;;;;;;;30.82;37.95;96139.69;6216227;23;20001;-65
2021/08/28 08:01:03;;;;;;;18.70;12.07;;;;;;;30.95;38.17;96133.53;6216056;23;20335;-65
2021/08/28 08:03:29;;;;;;;16.80;10.60;;;;;;;31.23;38.07;96127.25;6216095;23;20008;-65
2021/08/28 08:05:55;;;;;;;17.90;11.15;;;;;;;31.01;38.52;96130.03;6206065;23;20013;-65
2021/08/28 08:08:21;;;;;;;18.80;11.52;;;;;;;30.86;39.34;96122.06;6186125;23;20055;-64
2021/08/28 08:10:47;;;;;;;15.40;12.07;;;;;;;30.57;38.77;96126.59;6186201;23;20435;-66
2021/08/28 08:13:12;;;;;;;22.35;12.02;;;;;;;30.21;40.14;96126.50;6186162;23;20001;-65
2021/08/28 08:15:38;;;;;;;19.73;11.63;;;;;;;30.56;41.28;96104.19;6185846;23;20383;-65
2021/08/28 08:18:04;;;;;;;17.40;11.40;;;;;;;31.00;40.22;96121.09;6185954;23;20029;-66
2021/08/28 08:20:29;;;;;;;18.67;11.23;;;;;;;30.93;38.33;96111.28;6185986;23;20424;-65
2021/08/28 08:22:55;;;;;;;21.83;11.05;;;;;;;30.72;39.45;96115.69;6186070;23;20005;-66
2021/08/28 08:25:21;;;;;;;18.75;11.38;;;;;;;30.89;39.52;96113.56;6185792;23;20008;-64
2021/08/28 08:27:47;;;;;;;14.93;10.95;;;;;;;30.98;39.09;96109.69;6186213;23;20009;-66
2021/08/28 08:30:13;;;;;;;15.30;9.90;;;;;;;30.85;37.72;96115.81;6185920;23;20471;-65
2021/08/28 08:32:38;;;;;;;18.00;10.80;;;;;;;30.66;37.61;96111.91;6185967;23;20012;-66
2021/08/28 08:35:04;;;;;;;18.65;10.85;;;;;;;30.91;37.83;96113.38;6185895;23;20340;-65
2021/08/28 08:37:30;;;;;;;26.13;10.65;;;;;;;31.39;38.17;96113.44;6185775;23;20093;-65
2021/08/28 08:39:56;;;;;;;13.57;9.70;;;;;;;31.69;37.62;96114.19;6185923;23;20013;-66
2021/08/28 08:42:24;;;;;;;19.45;10.18;;;;;;;31.69;37.43;96109.59;6185690;23;20008;-65
2021/08/28 08:44:52;;;;;;;16.58;9.80;;;;;;;31.75;35.80;96110.63;6185733;23;20439;-66
2021/08/28 08:47:19;;;;;;;19.35;9.45;;;;;;;31.56;35.97;96109.53;6185737;23;20009;-64
2021/08/28 08:49:46;;;;;;;17.30;10.88;;;;;;;31.13;37.30;96127.63;6185908;23;20011;-65
2021/08/28 08:52:12;;;;;;;24.02;10.77;;;;;;;30.78;37.90;96114.94;6185953;23;20001;-66
2021/08/28 08:54:37;;;;;;;19.10;10.05;;;;;;;30.65;37.74;96112.97;6185605;23;20028;-66
2021/08/28 08:57:05;;;;;;;16.85;10.18;;;;;;;30.81;37.38;96106.47;6185571;23;20012;-65
2021/08/28 08:59:31;;;;;;;16.05;10.65;;;;;;;30.88;37.90;96104.63;6185626;23;20027;-65
2021/08/28 09:01:57;;;;;;;21.02;10.70;;;;;;;30.99;37.50;96105.09;6185565;23;20471;-66
2021/08/28 09:04:22;;;;;;;16.83;10.40;;;;;;;30.98;37.21;96093.50;6185417;23;20032;-65
2021/08/28 09:06:49;;;;;;;24.63;10.73;;;;;;;30.82;37.12;96091.09;6185977;23;20009;-66
2021/08/28 09:09:16;;;;;;;15.27;10.73;;;;;;;31.04;38.81;96089.16;6187585;23;20420;-65
2021/08/28 09:12:02;;;;;;;19.67;11.57;;;;;;;30.99;37.31;96081.66;6187513;23;20009;-65
2021/08/28 09:14:28;;;;;;;21.50;10.88;;;;;;;30.80;38.12;96085.06;6187606;23;20011;-64
2021/08/28 09:16:54;;;;;;;20.63;11.43;;;;;;;30.81;38.06;96092.13;6187427;23;20005;-65
2021/08/28 09:19:36;;;;;;;19.27;9.93;;;;;;;30.61;37.08;96082.84;6187831;23;20395;-65
2021/08/28 09:22:05;;;;;;;18.13;10.00;;;;;;;30.62;37.08;96073.72;6187777;23;20005;-63
2021/08/28 09:24:42;;;;;;;16.42;10.52;;;;;;;30.75;37.60;96072.97;6187297;23;20072;-64
2021/08/28 09:27:09;;;;;;;17.42;9.35;;;;;;;30.65;38.23;96069.78;6161250;23;20005;-65
2021/08/28 09:29:42;;;;;;;20.65;10.80;;;;;;;30.80;38.67;96053.53;6187644;23;20012;-64
2021/08/28 09:32:08;;;;;;;14.65;9.55;;;;;;;30.82;37.50;96062.22;6187761;23;20035;-65
2021/08/28 09:34:34;;;;;;;17.00;9.90;;;;;;;30.92;37.38;96063.75;6187203;23;20012;-65
2021/08/28 09:37:01;;;;;;;22.27;9.93;;;;;;;30.89;38.15;96029.91;6187445;23;20005;-65
2021/08/28 09:40:00;;;;;;;19.00;10.85;;;;;;;30.81;38.25;96060.56;6187570;23;20063;-64
2021/08/28 09:42:26;;;;;;;22.30;10.18;;;;;;;30.77;38.76;96057.47;6107607;23;20013;-64
2021/08/28 09:44:53;;;;;;;17.70;10.63;;;;;;;30.96;38.32;96059.59;6187298;23;20055;-64
2021/08/28 09:47:29;;;;;;;19.63;11.85;;;;;;;31.33;39.54;96051.28;6187109;23;20005;-64
2021/08/28 09:49:54;;;;;;;17.27;10.40;;;;;;;31.40;36.80;96054.84;6187222;23;20005;-65
2021/08/28 09:52:23;;;;;;;20.25;10.25;;;;;;;30.97;37.17;96058.59;6187347;23;20439;-64
2021/08/28 09:54:49;;;;;;;17.15;9.55;;;;;;;31.14;37.37;96049.13;6161468;23;20009;-65
2021/08/28 09:57:16;;;;;;;22.63;9.02;;;;;;;31.20;35.80;96043.94;6187391;23;20431;-65
2021/08/28 09:59:44;;;;;;;27.55;9.25;;;;;;;31.14;36.66;96043.72;6187288;23;20001;-64
2021/08/28 10:02:12;;;;;;;16.73;10.43;;;;;;;30.83;38.17;96042.34;6160868;23;20005;-65
2021/08/28 10:04:58;;;;;;;15.85;10.45;;;;;;;30.75;38.96;96053.25;6187227;23;20028;-65
2021/08/28 10:07:26;;;;;;;19.52;10.20;;;;;;;30.82;38.37;96042.53;6187102;23;20031;-66
2021/08/28 10:10:03;;;;;;;21.20;10.07;;;;;;;30.91;38.04;96045.91;6187355;23;20060;-65
2021/08/28 10:12:31;;;;;;;21.08;9.85;;;;;;;31.02;37.79;96039.91;6187170;23;20005;-64
2021/08/28 10:14:57;;;;;;;23.58;10.05;;;;;;;31.01;39.01;96040.97;6186993;23;20005;-66
2021/08/28 10:17:24;;;;;;;26.10;9.85;;;;;;;31.14;37.47;96030.22;6186983;23;20245;-64
2021/08/28 10:19:52;;;;;;;20.40;10.43;;;;;;;31.20;38.09;96025.03;6186528;23;20004;-64
2021/08/28 10:22:30;;;;;;;17.10;10.15;;;;;;;31.15;38.16;96036.44;6187209;23;20052;-65
2021/08/28 10:24:58;;;;;;;18.83;10.82;;;;;;;31.01;38.29;96017.50;6160826;23;20012;-65
2021/08/28 10:27:26;;;;;;;24.45;10.75;;;;;;;30.95;39.35;96023.69;6160626;23;20096;-64
2021/08/28 10:29:52;;;;;;;17.55;9.25;;;;;;;30.91;37.76;96027.81;6187159;23;20005;-64
2021/08/28 10:32:19;;;;;;;11.15;8.82;;;;;;;30.81;37.95;96032.75;6186897;23;20384;-65
2021/08/28 10:34:45;;;;;;;23.13;10.40;;;;;;;31.04;38.01;96032.47;6186948;23;20009;-65
2021/08/28 10:37:12;;;;;;;17.65;9.38;;;;;;;31.11;36.79;96016.28;6187503;23;20032;-65
2021/08/28 10:39:39;;;;;;;17.67;9.88;;;;;;;31.27;37.65;96021.31;6186882;23;20431;-64
2021/08/28 10:42:07;;;;;;;16.70;9.77;;;;;;;31.17;37.51;96025.44;6187047;23;20005;-65
2021/08/28 10:44:33;;;;;;;19.48;9.70;;;;;;;31.07;36.99;96021.25;6187131;23;20005;-64
2021/08/28 10:46:59;;;;;;;12.02;8.82;;;;;;;31.15;37.66;96022.94;6187144;23;20005;-64
2021/08/28 10:49:25;;;;;;;23.27;10.05;;;;;;;31.34;37.54;96012.41;6186798;23;20339;-65
2021/08/28 10:51:55;;;;;;;20.48;10.02;;;;;;;31.42;37.38;96012.25;6186552;23;20047;-65
2021/08/28 10:54:30;;;;;;;18.25;9.57;;;;;;;31.26;37.31;96019.66;6186724;23;20016;-64
2021/08/28 10:56:58;;;;;;;16.90;9.93;;;;;;;31.19;37.16;96017.97;6187204;23;20028;-65
2021/08/28 10:59:37;;;;;;;17.17;9.73;;;;;;;31.00;36.10;96015.81;6186658;23;20016;-64
2021/08/28 11:02:15;;;;;;;23.30;8.93;;;;;;;30.94;36.51;96013.91;6186642;23;20088;-64
2021/08/28 11:04:42;;;;;;;22.23;9.10;;;;;;;31.11;36.87;96010.88;6186793;23;20066;-64
2021/08/28 11:07:18;;;;;;;19.55;9.07;;;;;;;31.24;37.63;96007.41;6186284;23;20091;-64
2021/08/28 11:10:04;;;;;;;17.00;9.05;;;;;;;31.24;36.15;96004.72;6186671;23;20016;-65
2021/08/28 11:12:43;;;;;;;20.05;9.30;;;;;;;31.20;37.02;95998.88;6186973;23;20009;-65
2021/08/28 11:15:24;;;;;;;14.52;10.75;;;;;;;31.34;36.04;96005.16;6186684;23;20004;-64
2021/08/28 11:17:54;;;;;;;22.00;9.63;;;;;;;31.08;35.80;96011.28;6186600;23;20076;-64